Time;durP1;ratioP1;P1;durP2;ratioP2;P2;SDS_P1;SDS_P2;PMS_P1;PMS_P2;Temp;Humidity;BMP_temperature;BMP_pressure;BME280_temperature;BME280_humidity;BME280_pressure;Samples;Min_cycle;Max_cycle;Signal;HPM_P1;HPM_P2
2023/08/17 00:01:25;;;;;;;7.95;6.00;;;15.30;99.90;;;;;;4940389;28;20051;-78
2023/08/17 00:03:51;;;;;;;9.85;6.22;;;15.30;99.90;;;;;;4938424;28;20489;-78
2023/08/17 00:06:17;;;;;;;9.38;6.28;;;15.40;99.90;;;;;;4967253;28;20046;-78
2023/08/17 00:08:45;;;;;;;10.93;6.18;;;15.30;99.90;;;;;;4938971;28;20077;-78
2023/08/17 00:11:11;;;;;;;9.52;6.03;;;15.40;99.90;;;;;;4939830;28;20580;-78
2023/08/17 00:13:39;;;;;;;9.50;6.40;;;15.40;99.90;;;;;;4940204;28;20047;-78
2023/08/17 00:16:05;;;;;;;9.70;5.90;;;15.40;99.90;;;;;;4938869;28;20058;-78
2023/08/17 00:18:34;;;;;;;8.25;6.15;;;15.30;99.90;;;;;;4944148;28;20035;-78
2023/08/17 00:21:03;;;;;;;9.02;6.53;;;15.30;99.90;;;;;;4937272;28;20047;-78
2023/08/17 00:23:29;;;;;;;10.80;6.93;;;15.20;99.90;;;;;;4940687;28;20042;-78
2023/08/17 00:25:55;;;;;;;9.63;6.88;;;15.20;99.90;;;;;;4945139;28;20049;-78
2023/08/17 00:28:21;;;;;;;7.68;6.88;;;15.30;99.90;;;;;;4945064;28;20047;-78
2023/08/17 00:30:51;;;;;;;8.35;7.22;;;15.20;99.90;;;;;;4946761;28;20080;-78
2023/08/17 00:33:17;;;;;;;9.45;7.45;;;15.20;99.90;;;;;;4963576;28;20046;-79
2023/08/17 00:35:45;;;;;;;9.50;6.80;;;15.20;99.90;;;;;;4982166;28;20030;-78
2023/08/17 00:38:12;;;;;;;8.18;6.75;;;15.20;99.90;;;;;;4940086;28;20134;-78
2023/08/17 00:40:41;;;;;;;7.63;6.63;;;15.20;99.90;;;;;;4938941;28;20043;-78
2023/08/17 00:43:08;;;;;;;14.27;6.60;;;15.20;99.90;;;;;;4956903;28;20092;-78
2023/08/17 00:45:36;;;;;;;9.18;5.97;;;15.20;99.90;;;;;;4971825;28;20034;-78
2023/08/17 00:48:05;;;;;;;9.35;6.45;;;15.20;99.90;;;;;;4967006;28;20465;-78
2023/08/17 00:50:31;;;;;;;9.98;6.28;;;15.20;99.90;;;;;;4948033;28;20042;-78
2023/08/17 00:52:58;;;;;;;8.00;5.60;;;15.20;99.90;;;;;;4963719;28;20147;-78
2023/08/17 00:55:28;;;;;;;8.63;5.80;;;15.20;99.90;;;;;;4979993;28;20039;-78
2023/08/17 00:57:56;;;;;;;9.45;5.80;;;15.20;99.90;;;;;;4946779;28;20038;-78
2023/08/17 01:00:23;;;;;;;7.32;5.88;;;15.20;99.90;;;;;;4969873;28;20042;-78
2023/08/17 01:02:49;;;;;;;7.45;5.82;;;15.10;99.90;;;;;;4947429;28;20138;-78
2023/08/17 01:05:18;;;;;;;10.52;6.57;;;15.10;99.90;;;;;;4963444;28;20106;-78
2023/08/17 01:07:44;;;;;;;7.57;5.70;;;15.00;99.90;;;;;;4946103;28;20043;-78
2023/08/17 01:10:10;;;;;;;8.38;6.05;;;15.10;99.90;;;;;;4961394;28;20039;-78
2023/08/17 01:13:14;;;;;;;10.63;6.80;;;15.00;99.90;;;;;;4969461;28;20049;-78
2023/08/17 01:15:50;;;;;;;11.00;6.40;;;15.00;99.90;;;;;;4949406;28;20409;-78
2023/08/17 01:18:16;;;;;;;8.75;6.60;;;14.90;99.90;;;;;;4956374;28;20038;-79
2023/08/17 01:20:46;;;;;;;8.13;6.57;;;14.90;99.90;;;;;;4961679;28;20050;-78
2023/08/17 01:23:19;;;;;;;10.75;6.38;;;14.90;99.90;;;;;;4946120;28;20039;-78
2023/08/17 01:25:48;;;;;;;8.82;5.90;;;14.80;99.90;;;;;;4960519;28;20494;-78
2023/08/17 01:28:14;;;;;;;9.48;6.47;;;14.80;99.90;;;;;;4955256;28;20050;-78
2023/08/17 01:30:53;;;;;;;9.07;6.88;;;14.70;99.90;;;;;;4946624;28;20046;-78
2023/08/17 01:33:33;;;;;;;9.57;6.93;;;14.70;99.90;;;;;;4946379;28;20120;-78
2023/08/17 01:36:17;;;;;;;9.35;6.47;;;14.60;99.90;;;;;;4963632;28;20070;-78
2023/08/17 01:38:46;;;;;;;10.98;6.40;;;14.60;99.90;;;;;;4971940;28;20113;-78
2023/08/17 01:41:15;;;;;;;10.02;6.88;;;14.50;99.90;;;;;;4962701;28;20461;-78
2023/08/17 01:43:47;;;;;;;8.50;6.32;;;14.50;99.90;;;;;;4943445;28;20054;-78
2023/08/17 01:46:17;;;;;;;9.35;6.47;;;14.50;99.90;;;;;;4949700;28;20113;-79
2023/08/17 01:48:46;;;;;;;7.57;6.20;;;14.50;99.90;;;;;;4947009;28;20042;-78
2023/08/17 01:51:21;;;;;;;9.73;6.70;;;14.50;99.90;;;;;;4974536;28;20049;-78
2023/08/17 01:53:47;;;;;;;9.07;6.35;;;14.50;99.90;;;;;;4962931;28;20042;-77
2023/08/17 01:56:17;;;;;;;11.25;6.20;;;14.50;99.90;;;;;;4931843;28;20307;-78
2023/08/17 01:58:45;;;;;;;9.68;6.47;;;14.50;99.90;;;;;;4957342;28;20409;-78
2023/08/17 02:01:11;;;;;;;8.98;6.03;;;14.50;99.90;;;;;;4949707;28;20038;-77
2023/08/17 02:03:37;;;;;;;9.00;6.00;;;14.60;99.90;;;;;;4945311;28;20061;-77
2023/08/17 02:06:05;;;;;;;9.82;6.30;;;14.50;99.90;;;;;;4960857;28;20042;-78
2023/08/17 02:08:41;;;;;;;8.82;6.15;;;14.40;99.90;;;;;;4941990;28;20430;-77
2023/08/17 02:11:09;;;;;;;8.07;6.15;;;14.50;99.90;;;;;;4948824;28;20100;-78
2023/08/17 02:13:42;;;;;;;8.82;5.70;;;14.40;99.90;;;;;;4957173;28;20046;-77
2023/08/17 02:16:11;;;;;;;8.05;5.75;;;14.50;99.90;;;;;;4948843;28;20121;-78
2023/08/17 02:18:50;;;;;;;8.45;5.80;;;14.50;99.90;;;;;;4932341;28;20497;-77
2023/08/17 02:21:15;;;;;;;10.30;6.00;;;14.50;99.90;;;;;;4941253;28;20046;-78
2023/08/17 02:23:41;;;;;;;9.88;6.30;;;14.60;99.90;;;;;;4941380;28;20043;-78
2023/08/17 02:26:07;;;;;;;8.75;5.70;;;14.70;99.90;;;;;;4972489;28;20551;-78
2023/08/17 02:28:36;;;;;;;7.93;5.40;;;14.60;99.90;;;;;;4930864;28;20399;-78
2023/08/17 02:31:02;;;;;;;6.30;5.07;;;14.70;99.90;;;;;;4952776;28;20121;-78
2023/08/17 02:33:30;;;;;;;8.55;5.70;;;14.70;99.90;;;;;;4941558;28;20083;-78
2023/08/17 02:36:02;;;;;;;8.30;5.28;;;14.70;99.90;;;;;;4956148;28;20140;-78
2023/08/17 02:38:30;;;;;;;8.18;4.97;;;14.80;99.90;;;;;;4948650;28;20506;-78
2023/08/17 02:40:58;;;;;;;7.78;4.90;;;14.80;99.90;;;;;;4948413;28;20042;-77
2023/08/17 02:43:33;;;;;;;10.27;5.65;;;14.80;99.90;;;;;;4957138;28;20061;-78
2023/08/17 02:46:03;;;;;;;6.18;5.38;;;14.80;99.90;;;;;;4934115;28;20096;-78
2023/08/17 02:48:33;;;;;;;10.57;5.28;;;14.80;99.90;;;;;;4947996;28;20086;-78
2023/08/17 02:51:02;;;;;;;7.57;5.63;;;14.80;99.90;;;;;;4944179;28;20413;-78
2023/08/17 02:53:33;;;;;;;9.82;5.72;;;14.80;99.90;;;;;;4945264;28;20050;-78
2023/08/17 02:56:14;;;;;;;8.98;5.53;;;14.80;99.90;;;;;;4970450;28;20042;-78
2023/08/17 02:58:43;;;;;;;11.63;5.95;;;14.70;99.90;;;;;;4934320;28;20042;-78
2023/08/17 03:01:11;;;;;;;7.38;5.50;;;14.70;99.90;;;;;;4941097;28;20151;-78
2023/08/17 03:03:42;;;;;;;7.55;5.50;;;14.60;99.90;;;;;;4948941;28;20092;-78
2023/08/17 03:06:10;;;;;;;8.90;5.75;;;14.70;99.90;;;;;;4948436;28;20073;-78
2023/08/17 03:08:40;;;;;;;7.75;5.20;;;14.70;99.90;;;;;;4956341;28;20034;-77
2023/08/17 03:11:11;;;;;;;7.35;5.28;;;14.70;99.90;;;;;;4940149;28;20043;-79
2023/08/17 03:13:37;;;;;;;10.88;5.97;;;14.70;99.90;;;;;;4959070;28;20038;-79
2023/08/17 03:16:10;;;;;;;8.25;5.50;;;14.70;99.90;;;;;;4952052;28;20105;-77
2023/08/17 03:18:47;;;;;;;9.30;5.78;;;14.80;99.90;;;;;;4940727;28;20047;-78
2023/08/17 03:21:18;;;;;;;9.55;5.95;;;14.70;99.90;;;;;;4956062;28;20504;-78
2023/08/17 03:23:48;;;;;;;7.72;5.82;;;14.80;99.90;;;;;;4939741;28;20097;-78
2023/08/17 03:26:16;;;;;;;10.30;6.07;;;14.80;99.90;;;;;;4934995;28;20043;-78
2023/08/17 03:28:42;;;;;;;6.57;5.55;;;14.80;99.90;;;;;;4947856;28;20042;-78
2023/08/17 03:31:14;;;;;;;8.75;5.82;;;14.80;99.90;;;;;;4959794;28;20406;-77
2023/08/17 03:33:40;;;;;;;8.75;5.88;;;14.80;99.90;;;;;;4949724;28;20038;-78
2023/08/17 03:36:06;;;;;;;9.45;6.50;;;14.80;99.90;;;;;;4954974;28;20034;-78
2023/08/17 03:38:40;;;;;;;8.02;6.00;;;14.80;99.90;;;;;;4942303;28;20045;-78
2023/08/17 03:41:09;;;;;;;10.15;5.70;;;14.80;99.90;;;;;;4959183;28;20038;-78
2023/08/17 03:43:35;;;;;;;7.65;5.45;;;14.90;99.90;;;;;;4959142;28;20050;-77
2023/08/17 03:46:10;;;;;;;8.73;6.00;;;14.90;99.90;;;;;;4958136;28;20054;-77
2023/08/17 03:48:39;;;;;;;8.65;5.70;;;14.80;99.90;;;;;;4954923;28;20058;-78
2023/08/17 03:51:18;;;;;;;8.63;5.65;;;14.90;99.90;;;;;;4955687;28;20446;-78
2023/08/17 03:53:44;;;;;;;8.48;6.15;;;14.90;99.90;;;;;;4951895;28;20034;-78
2023/08/17 03:56:15;;;;;;;8.27;5.82;;;14.90;99.90;;;;;;4956548;28;20043;-77
2023/08/17 03:58:44;;;;;;;7.43;5.20;;;14.90;99.90;;;;;;4939518;28;20288;-78
2023/08/17 04:01:15;;;;;;;8.48;5.60;;;14.90;99.90;;;;;;4930997;28;20031;-78
2023/08/17 04:03:44;;;;;;;8.65;5.50;;;14.90;99.90;;;;;;4939776;28;20047;-78
2023/08/17 04:06:13;;;;;;;8.68;6.50;;;15.00;99.90;;;;;;4938365;28;20106;-78
2023/08/17 04:08:45;;;;;;;7.70;5.47;;;15.00;99.90;;;;;;4931620;28;20055;-78
2023/08/17 04:11:16;;;;;;;9.10;5.93;;;15.00;99.90;;;;;;4937036;28;20074;-77
2023/08/17 04:13:45;;;;;;;7.93;6.22;;;15.00;99.90;;;;;;4937190;28;20053;-78
2023/08/17 04:16:16;;;;;;;7.72;6.10;;;15.10;99.90;;;;;;4936241;28;20043;-77
2023/08/17 04:19:00;;;;;;;8.55;6.47;;;15.10;99.90;;;;;;4934709;28;20494;-78
2023/08/17 04:21:31;;;;;;;7.72;6.22;;;15.10;99.90;;;;;;4958851;28;20053;-78
2023/08/17 04:24:06;;;;;;;8.68;6.45;;;15.10;99.90;;;;;;4959003;28;20046;-77
2023/08/17 04:26:34;;;;;;;8.68;6.50;;;15.10;99.90;;;;;;4965674;28;20051;-77
2023/08/17 04:29:07;;;;;;;9.77;6.25;;;15.20;99.90;;;;;;4938842;28;20411;-77
2023/08/17 04:31:38;;;;;;;;;;;15.10;99.90;;;;;;4949842;28;20031;-78
2023/08/17 04:34:09;;;;;;;11.38;6.75;;;15.20;99.90;;;;;;4957891;28;20376;-78
2023/08/17 04:36:37;;;;;;;9.93;6.40;;;15.20;99.90;;;;;;4930089;28;20031;-78
2023/08/17 04:39:09;;;;;;;9.30;6.43;;;15.30;99.90;;;;;;4950557;28;20039;-78
2023/08/17 04:41:37;;;;;;;8.52;5.93;;;15.30;99.90;;;;;;4951923;28;20046;-78
2023/08/17 04:44:07;;;;;;;8.30;6.18;;;15.30;99.90;;;;;;4960046;28;20038;-78
2023/08/17 04:46:32;;;;;;;12.35;6.75;;;15.30;99.90;;;;;;4944765;28;20190;-78
2023/08/17 04:49:03;;;;;;;12.00;6.60;;;15.30;99.90;;;;;;4940936;28;20063;-78
2023/08/17 04:51:31;;;;;;;10.02;6.50;;;15.30;99.90;;;;;;4939371;28;20074;-78
2023/08/17 04:53:57;;;;;;;9.75;6.15;;;15.30;99.90;;;;;;4938393;28;20047;-78
2023/08/17 04:56:23;;;;;;;10.80;5.80;;;15.30;99.90;;;;;;4937480;28;20047;-78
2023/08/17 04:58:51;;;;;;;9.05;6.28;;;15.40;99.90;;;;;;4943273;28;20072;-78
2023/08/17 05:01:18;;;;;;;10.57;5.78;;;15.40;99.90;;;;;;4940294;28;20463;-79
2023/08/17 05:03:46;;;;;;;8.13;5.65;;;15.40;99.90;;;;;;4950288;28;20391;-77
2023/08/17 05:06:17;;;;;;;9.32;6.20;;;15.40;99.90;;;;;;4970517;28;20046;-77
2023/08/17 05:08:48;;;;;;;9.85;5.68;;;15.40;99.90;;;;;;4938026;28;20070;-78
2023/08/17 05:11:17;;;;;;;7.63;5.97;;;15.40;99.90;;;;;;4949953;28;20681;-76
2023/08/17 05:13:45;;;;;;;7.65;5.50;;;15.40;99.90;;;;;;4956503;28;20039;-79
2023/08/17 05:16:24;;;;;;;9.52;5.30;;;15.50;99.90;;;;;;4950748;28;20080;-78
2023/08/17 05:18:58;;;;;;;6.78;4.63;;;15.50;99.90;;;;;;4944534;28;20408;-78
2023/08/17 05:21:26;;;;;;;9.63;4.97;;;15.60;99.90;;;;;;4974544;28;20110;-77
2023/08/17 05:23:56;;;;;;;7.63;5.30;;;15.60;99.90;;;;;;4955285;28;20043;-78
2023/08/17 05:26:25;;;;;;;10.23;5.45;;;15.60;99.90;;;;;;4941868;28;20072;-78
2023/08/17 05:28:56;;;;;;;9.27;5.28;;;15.60;99.90;;;;;;4942657;28;20046;-77
2023/08/17 05:31:22;;;;;;;8.57;5.03;;;15.70;99.90;;;;;;4958199;28;20045;-77
2023/08/17 05:33:50;;;;;;;6.28;4.75;;;15.70;99.90;;;;;;4958493;28;20046;-78
2023/08/17 05:36:19;;;;;;;7.47;4.80;;;15.70;99.90;;;;;;4957501;28;20042;-78
2023/08/17 05:38:45;;;;;;;9.02;4.93;;;15.80;99.90;;;;;;4964526;28;20520;-77
2023/08/17 05:41:13;;;;;;;9.05;4.75;;;15.80;99.90;;;;;;4936285;28;20043;-78
2023/08/17 05:43:43;;;;;;;6.43;4.43;;;15.70;99.90;;;;;;4950880;28;20421;-77
2023/08/17 05:46:08;;;;;;;7.20;4.50;;;15.80;99.90;;;;;;4960886;28;20042;-77
2023/08/17 05:48:37;;;;;;;9.68;4.70;;;15.80;99.90;;;;;;4976904;28;20046;-78
2023/08/17 05:51:03;;;;;;;10.32;4.65;;;15.90;99.90;;;;;;4946673;28;20493;-78
2023/08/17 05:53:29;;;;;;;8.50;4.68;;;15.90;99.90;;;;;;4973743;28;20159;-78
2023/08/17 05:56:07;;;;;;;7.30;4.85;;;15.90;99.90;;;;;;4941958;28;20034;-77
2023/08/17 05:58:45;;;;;;;7.95;4.40;;;15.90;99.90;;;;;;4973809;28;20158;-77
2023/08/17 06:01:12;;;;;;;8.27;4.60;;;15.90;99.90;;;;;;4956577;28;20063;-77
2023/08/17 06:03:38;;;;;;;8.38;4.82;;;15.90;99.90;;;;;;4962665;28;20545;-78
2023/08/17 06:06:11;;;;;;;7.97;4.20;;;15.90;99.90;;;;;;4956393;28;20045;-76
2023/08/17 06:08:37;;;;;;;8.82;4.40;;;16.00;99.90;;;;;;4956224;28;20053;-76
2023/08/17 06:11:03;;;;;;;8.85;4.47;;;16.00;99.90;;;;;;4947649;28;20039;-77
2023/08/17 06:13:35;;;;;;;7.25;4.13;;;16.00;99.90;;;;;;4947702;28;20075;-77
2023/08/17 06:16:01;;;;;;;8.90;4.07;;;16.00;99.90;;;;;;4958577;28;20042;-78
2023/08/17 06:18:27;;;;;;;6.70;4.05;;;16.10;99.90;;;;;;4973980;28;20535;-78
2023/08/17 06:20:53;;;;;;;7.03;4.00;;;16.10;99.90;;;;;;4955907;28;20046;-79
2023/08/17 06:23:20;;;;;;;7.30;4.10;;;16.10;99.90;;;;;;4954832;28;20035;-79
2023/08/17 06:25:46;;;;;;;9.77;4.18;;;16.10;99.90;;;;;;4954716;28;20051;-78
2023/08/17 06:28:12;;;;;;;8.45;4.20;;;16.20;99.90;;;;;;4939185;28;20049;-78
2023/08/17 06:30:37;;;;;;;8.50;4.32;;;16.20;99.90;;;;;;4939206;28;20035;-77
2023/08/17 06:33:06;;;;;;;12.10;4.50;;;16.30;99.90;;;;;;4939011;28;20042;-78
2023/08/17 06:35:31;;;;;;;7.25;3.90;;;16.20;99.90;;;;;;4939066;28;20046;-78
2023/08/17 06:37:57;;;;;;;6.20;3.85;;;16.40;99.90;;;;;;4941081;28;20422;-77
2023/08/17 06:40:24;;;;;;;8.45;4.07;;;16.50;99.90;;;;;;4956825;28;20141;-77
2023/08/17 06:42:50;;;;;;;8.98;3.78;;;16.50;99.90;;;;;;4940667;28;20486;-78
2023/08/17 06:45:18;;;;;;;5.63;3.70;;;16.50;99.90;;;;;;4956854;28;20050;-78
2023/08/17 06:47:45;;;;;;;7.57;3.65;;;16.60;99.90;;;;;;4956200;28;20053;-78
2023/08/17 06:50:11;;;;;;;7.50;4.05;;;16.60;99.90;;;;;;4956528;28;20054;-77
2023/08/17 06:52:36;;;;;;;7.70;4.07;;;16.60;99.90;;;;;;4956602;28;20043;-78
2023/08/17 06:55:02;;;;;;;7.18;3.50;;;16.60;99.90;;;;;;4940988;28;20042;-77
2023/08/17 06:57:28;;;;;;;6.53;3.72;;;16.70;99.90;;;;;;4940243;28;20034;-77
2023/08/17 06:59:54;;;;;;;7.38;3.53;;;16.70;99.90;;;;;;4956838;28;20443;-78
2023/08/17 07:02:20;;;;;;;5.25;3.08;;;16.70;99.90;;;;;;4940339;28;20075;-78
2023/08/17 07:04:47;;;;;;;5.25;3.15;;;16.80;99.90;;;;;;4941072;28;20066;-79
2023/08/17 07:07:14;;;;;;;6.70;3.40;;;16.80;99.90;;;;;;4956298;28;20100;-78
2023/08/17 07:09:40;;;;;;;7.20;2.80;;;16.80;99.90;;;;;;4940444;28;20077;-77
2023/08/17 07:12:06;;;;;;;6.63;3.13;;;16.90;99.90;;;;;;4940312;28;20082;-77
2023/08/17 07:14:33;;;;;;;6.38;3.00;;;16.90;99.90;;;;;;4940379;28;20085;-78
2023/08/17 07:16:59;;;;;;;6.97;3.25;;;17.00;99.90;;;;;;4940029;28;20046;-77
2023/08/17 07:19:25;;;;;;;6.47;3.25;;;17.00;99.90;;;;;;4940116;28;20058;-78
2023/08/17 07:21:51;;;;;;;5.90;2.83;;;17.10;99.90;;;;;;4956020;28;20054;-78
2023/08/17 07:24:17;;;;;;;8.50;3.65;;;17.10;99.90;;;;;;4940301;28;20402;-79
2023/08/17 07:26:43;;;;;;;7.10;3.30;;;17.10;99.90;;;;;;4940027;28;20121;-78
2023/08/17 07:29:09;;;;;;;7.15;3.05;;;17.10;99.90;;;;;;4956094;28;20039;-78
2023/08/17 07:31:37;;;;;;;4.28;2.65;;;17.10;99.90;;;;;;4939729;28;20043;-78
2023/08/17 07:34:04;;;;;;;7.20;3.00;;;17.10;99.90;;;;;;4939348;28;20039;-79
2023/08/17 07:36:30;;;;;;;6.40;3.33;;;17.10;99.90;;;;;;4939914;28;20129;-78
2023/08/17 07:38:56;;;;;;;4.80;2.95;;;17.10;99.90;;;;;;4939597;28;20140;-78
2023/08/17 07:41:21;;;;;;;7.30;3.00;;;17.20;99.90;;;;;;4939636;28;20415;-77
2023/08/17 07:43:47;;;;;;;6.20;2.72;;;17.20;99.90;;;;;;4955593;28;20042;-79
2023/08/17 07:46:13;;;;;;;5.90;2.70;;;17.20;99.90;;;;;;4955850;28;20090;-78
2023/08/17 07:48:38;;;;;;;7.93;3.22;;;17.20;99.90;;;;;;4940143;28;20493;-78
2023/08/17 07:51:04;;;;;;;5.65;2.85;;;17.20;99.90;;;;;;4940011;28;20082;-77
2023/08/17 07:53:30;;;;;;;7.38;3.00;;;17.20;99.90;;;;;;4941520;28;20047;-80
2023/08/17 07:55:56;;;;;;;5.13;2.75;;;17.20;99.90;;;;;;4944455;28;20035;-79
2023/08/17 07:58:21;;;;;;;4.70;2.72;;;17.20;99.90;;;;;;4959710;28;20046;-77
2023/08/17 08:00:47;;;;;;;6.38;2.75;;;17.20;99.90;;;;;;4943588;28;20042;-78
2023/08/17 08:03:14;;;;;;;6.53;3.00;;;17.30;99.90;;;;;;4943703;28;20061;-79
2023/08/17 08:05:40;;;;;;;5.90;2.90;;;17.30;99.90;;;;;;4943269;28;20494;-78
2023/08/17 08:08:05;;;;;;;7.60;2.83;;;17.40;99.90;;;;;;4943612;28;20043;-79
2023/08/17 08:10:31;;;;;;;6.32;2.80;;;17.50;99.90;;;;;;4943809;28;20039;-79
2023/08/17 08:12:57;;;;;;;6.80;3.00;;;17.40;99.90;;;;;;4959377;28;20050;-80
2023/08/17 08:15:23;;;;;;;7.32;2.80;;;17.50;99.90;;;;;;4958890;28;20038;-79
2023/08/17 08:17:49;;;;;;;4.65;2.75;;;17.60;99.90;;;;;;4943183;28;20042;-80
2023/08/17 08:20:14;;;;;;;5.15;2.67;;;17.60;99.90;;;;;;4958960;28;20061;-79
2023/08/17 08:22:40;;;;;;;7.30;2.67;;;17.70;99.90;;;;;;4959616;28;20109;-79
2023/08/17 08:25:06;;;;;;;6.72;2.88;;;17.70;99.90;;;;;;4959292;28;20521;-79
2023/08/17 08:27:32;;;;;;;4.80;2.25;;;17.90;99.90;;;;;;4943545;28;20038;-80
2023/08/17 08:29:57;;;;;;;4.28;2.50;;;18.20;99.90;;;;;;4976068;28;20573;-79
2023/08/17 08:32:23;;;;;;;4.40;2.40;;;18.60;99.90;;;;;;4959093;28;20035;-78
2023/08/17 08:34:49;;;;;;;5.35;2.13;;;18.90;99.90;;;;;;4943159;28;20097;-78
2023/08/17 08:37:15;;;;;;;4.35;2.15;;;19.20;99.90;;;;;;4943768;28;20138;-79
2023/08/17 08:39:56;;;;;;;6.18;2.50;;;19.50;99.90;;;;;;4942998;28;20405;-79
2023/08/17 08:42:23;;;;;;;7.47;2.22;;;19.80;99.90;;;;;;4959795;28;20043;-80
2023/08/17 08:44:50;;;;;;;4.43;2.20;;;19.90;99.90;;;;;;4944427;28;20047;-77
2023/08/17 08:47:17;;;;;;;6.05;1.98;;;20.20;99.90;;;;;;4961953;28;20516;-80
2023/08/17 08:49:58;;;;;;;6.38;2.17;;;20.50;99.90;;;;;;4947162;28;20045;-79
2023/08/17 08:52:32;;;;;;;6.15;1.80;;;21.00;99.90;;;;;;4963471;28;20035;-80
2023/08/17 08:54:58;;;;;;;4.32;1.70;;;21.20;99.90;;;;;;4980056;28;20061;-79
2023/08/17 08:57:26;;;;;;;3.97;1.80;;;21.20;99.90;;;;;;4947691;28;20042;-79
2023/08/17 08:59:55;;;;;;;3.78;1.90;;;21.30;99.90;;;;;;4963818;28;20064;-78
2023/08/17 09:02:20;;;;;;;4.72;2.35;;;21.40;99.90;;;;;;4980581;28;20514;-79
2023/08/17 09:04:46;;;;;;;5.63;1.85;;;21.30;99.90;;;;;;4969866;28;20050;-80
2023/08/17 09:07:14;;;;;;;4.10;1.67;;;21.30;99.90;;;;;;4968999;28;20143;-79
2023/08/17 09:09:40;;;;;;;3.83;1.70;;;21.00;99.90;;;;;;4969560;28;20039;-78
2023/08/17 09:12:09;;;;;;;5.63;2.55;;;20.60;99.90;;;;;;4960389;28;20086;-80
2023/08/17 09:14:37;;;;;;;4.57;2.00;;;20.20;99.90;;;;;;4960094;28;20046;-79
2023/08/17 09:17:03;;;;;;;5.63;2.08;;;20.00;99.90;;;;;;4959286;28;20077;-79
2023/08/17 09:19:32;;;;;;;4.38;1.90;;;19.70;99.90;;;;;;4959624;28;20046;-80
2023/08/17 09:21:57;;;;;;;3.78;1.83;;;19.50;99.90;;;;;;4959158;28;20046;-79
2023/08/17 09:24:23;;;;;;;3.50;1.80;;;19.40;99.90;;;;;;4959257;28;20046;-79
2023/08/17 09:26:50;;;;;;;5.53;2.20;;;19.30;99.90;;;;;;4959803;28;20118;-80
2023/08/17 09:29:20;;;;;;;5.13;2.20;;;19.30;99.90;;;;;;4959549;28;20105;-80
2023/08/17 09:31:46;;;;;;;3.97;1.90;;;19.40;99.90;;;;;;4958923;28;20065;-79
2023/08/17 09:34:14;;;;;;;5.38;2.20;;;19.30;99.90;;;;;;4959096;28;20453;-80
2023/08/17 09:36:40;;;;;;;5.45;2.10;;;19.20;99.90;;;;;;4942750;28;20103;-79
2023/08/17 09:39:06;;;;;;;5.13;2.10;;;19.20;99.90;;;;;;4975192;28;20031;-78
2023/08/17 09:41:39;;;;;;;7.30;2.00;;;19.20;99.90;;;;;;4958958;28;20574;-79
2023/08/17 09:44:07;;;;;;;4.63;2.33;;;19.20;99.90;;;;;;4942878;28;20042;-78
2023/08/17 09:46:33;;;;;;;6.47;2.15;;;19.20;99.90;;;;;;4943151;28;20182;-78
2023/08/17 09:49:05;;;;;;;6.93;2.05;;;19.10;99.90;;;;;;4943150;28;20058;-80
2023/08/17 09:51:31;;;;;;;6.32;2.45;;;19.20;99.90;;;;;;4958610;28;20486;-80
2023/08/17 09:53:57;;;;;;;4.43;2.42;;;19.20;99.90;;;;;;4942858;28;20149;-79
2023/08/17 09:56:24;;;;;;;4.93;2.05;;;19.10;99.90;;;;;;4957930;28;20054;-80
2023/08/17 09:58:50;;;;;;;4.00;2.13;;;19.20;99.90;;;;;;4942598;28;20068;-79
2023/08/17 10:01:17;;;;;;;5.20;2.38;;;19.20;99.90;;;;;;4958374;28;20049;-78
2023/08/17 10:03:46;;;;;;;5.22;2.70;;;19.20;99.90;;;;;;4942410;28;20101;-80
2023/08/17 10:06:16;;;;;;;4.50;2.15;;;19.20;99.90;;;;;;4942778;28;20171;-79
2023/08/17 10:08:45;;;;;;;4.88;2.00;;;19.30;99.90;;;;;;4942576;28;20046;-80
2023/08/17 10:11:13;;;;;;;4.65;2.20;;;19.30;99.90;;;;;;4958514;28;20043;-81
2023/08/17 10:14:06;;;;;;;5.43;2.05;;;19.50;99.90;;;;;;4941991;28;20043;-78
2023/08/17 10:16:59;;;;;;;4.17;2.20;;;19.70;99.90;;;;;;4958209;28;20043;-80
2023/08/17 10:19:51;;;;;;;5.85;2.53;;;19.60;99.90;;;;;;4942776;28;20035;-80
2023/08/17 10:22:26;;;;;;;6.30;2.20;;;19.70;99.90;;;;;;4958784;28;20199;-80
2023/08/17 10:24:54;;;;;;;4.80;2.22;;;19.70;99.90;;;;;;4942772;28;20058;-80
2023/08/17 10:27:21;;;;;;;7.28;2.90;;;19.60;99.90;;;;;;4942464;28;20039;-79
2023/08/17 10:29:47;;;;;;;7.03;3.05;;;19.60;99.90;;;;;;4942728;28;20449;-80
2023/08/17 10:32:21;;;;;;;4.75;2.67;;;19.50;99.90;;;;;;4942650;28;20054;-79
2023/08/17 10:34:48;;;;;;;6.00;2.78;;;19.50;99.90;;;;;;4942124;28;20074;-80
2023/08/17 10:37:17;;;;;;;3.70;2.25;;;19.60;99.90;;;;;;4957133;28;20074;-80
2023/08/17 10:39:48;;;;;;;5.28;2.78;;;19.50;99.90;;;;;;4942744;28;20352;-80
2023/08/17 10:42:35;;;;;;;5.63;2.90;;;19.50;99.90;;;;;;4967964;28;20054;-78
2023/08/17 10:45:20;;;;;;;5.13;2.80;;;19.30;99.90;;;;;;4969089;28;20046;-79
2023/08/17 10:47:49;;;;;;;5.50;2.90;;;19.30;99.90;;;;;;4962551;28;20046;-79
2023/08/17 10:50:24;;;;;;;6.32;2.75;;;19.20;99.90;;;;;;4961836;28;20077;-79
2023/08/17 10:52:53;;;;;;;5.38;2.67;;;19.30;99.90;;;;;;4962192;28;20043;-79
2023/08/17 10:55:40;;;;;;;6.75;2.92;;;19.40;99.90;;;;;;4945463;28;20043;-79
2023/08/17 10:58:11;;;;;;;4.97;3.03;;;19.50;99.90;;;;;;4961683;28;20078;-80
2023/08/17 11:00:44;;;;;;;5.90;2.90;;;19.70;99.90;;;;;;4961422;28;20039;-79
2023/08/17 11:03:18;;;;;;;4.38;3.00;;;20.20;99.90;;;;;;4960663;28;20505;-80
2023/08/17 11:05:51;;;;;;;6.90;3.20;;;20.60;99.90;;;;;;4978452;28;20511;-77
2023/08/17 11:08:34;;;;;;;5.63;3.10;;;20.80;99.90;;;;;;4959892;28;20406;-80
2023/08/17 11:11:15;;;;;;;4.78;3.00;;;20.80;99.90;;;;;;4944066;28;20035;-79
2023/08/17 11:13:46;;;;;;;5.38;2.70;;;20.70;99.90;;;;;;4944007;28;20047;-79
2023/08/17 11:16:13;;;;;;;6.07;2.88;;;20.50;99.90;;;;;;4959386;28;20034;-80
2023/08/17 11:18:41;;;;;;;6.15;2.90;;;20.40;99.90;;;;;;4943048;28;20052;-79
2023/08/17 11:21:10;;;;;;;6.32;2.92;;;20.30;99.90;;;;;;4943564;28;20482;-78
2023/08/17 11:23:37;;;;;;;5.25;2.50;;;20.40;99.90;;;;;;4958566;28;20049;-79
2023/08/17 11:26:04;;;;;;;5.70;2.55;;;20.30;99.90;;;;;;4942607;28;20121;-78
2023/08/17 11:28:36;;;;;;;6.43;2.90;;;20.30;99.90;;;;;;4958478;28;20078;-78
2023/08/17 11:31:13;;;;;;;7.13;3.40;;;20.30;99.90;;;;;;4942205;28;20043;-78
2023/08/17 11:33:40;;;;;;;6.13;2.80;;;20.30;99.90;;;;;;4942184;28;20035;-79
2023/08/17 11:36:09;;;;;;;4.47;3.05;;;20.40;99.90;;;;;;4941445;28;20035;-79
2023/08/17 11:38:40;;;;;;;6.18;3.42;;;20.40;99.90;;;;;;4942167;28;20039;-79
2023/08/17 11:41:08;;;;;;;5.32;3.13;;;20.30;99.90;;;;;;4957913;28;20054;-79
2023/08/17 11:43:35;;;;;;;4.68;3.30;;;20.20;99.90;;;;;;4957583;28;20492;-79
2023/08/17 11:46:02;;;;;;;5.50;3.25;;;20.20;99.90;;;;;;4957306;28;20486;-79
2023/08/17 11:48:28;;;;;;;6.28;3.20;;;20.10;99.90;;;;;;4941118;28;20117;-78
2023/08/17 11:50:58;;;;;;;4.40;2.88;;;20.10;99.90;;;;;;4974032;28;20105;-79
2023/08/17 11:53:24;;;;;;;4.68;3.17;;;20.20;99.90;;;;;;4973455;28;20351;-78
2023/08/17 11:55:54;;;;;;;4.70;3.30;;;20.20;99.90;;;;;;4956467;28;20062;-79
2023/08/17 11:58:35;;;;;;;5.25;3.00;;;20.20;99.90;;;;;;4940678;28;20113;-79
2023/08/17 12:01:08;;;;;;;5.20;3.42;;;20.30;99.90;;;;;;4957566;28;20047;-79
2023/08/17 12:03:34;;;;;;;;;;;20.10;99.90;;;;;;4941565;28;20043;-79
2023/08/17 12:05:59;;;;;;;6.35;3.17;;;20.10;99.90;;;;;;4941254;28;20301;-80
2023/08/17 12:08:25;;;;;;;4.93;3.20;;;20.10;99.90;;;;;;4957024;28;20082;-79
2023/08/17 12:10:52;;;;;;;5.65;3.25;;;20.10;99.90;;;;;;4957161;28;20038;-80
2023/08/17 12:13:31;;;;;;;5.72;3.33;;;20.00;99.90;;;;;;4957529;28;20282;-79
2023/08/17 12:15:58;;;;;;;6.80;3.45;;;20.00;99.90;;;;;;4957235;28;20042;-80
2023/08/17 12:18:25;;;;;;;5.20;3.17;;;20.00;99.90;;;;;;4957401;28;20410;-78
2023/08/17 12:20:55;;;;;;;4.95;3.10;;;20.00;99.90;;;;;;4940747;28;20596;-79
2023/08/17 12:23:23;;;;;;;6.43;3.38;;;19.90;99.90;;;;;;4957103;28;20062;-78
2023/08/17 12:25:54;;;;;;;5.40;3.70;;;20.00;99.90;;;;;;4957196;28;20043;-78
2023/08/17 12:28:19;;;;;;;7.07;4.03;;;20.00;99.90;;;;;;4940916;28;20588;-78
2023/08/17 12:30:56;;;;;;;4.00;3.60;;;20.10;99.90;;;;;;4957661;28;20078;-78
2023/08/17 12:33:22;;;;;;;6.63;4.03;;;20.00;99.90;;;;;;4940973;28;20045;-78
2023/08/17 12:35:51;;;;;;;4.72;3.55;;;20.00;99.90;;;;;;4956434;28;20510;-77
2023/08/17 12:38:17;;;;;;;5.93;4.00;;;20.00;99.90;;;;;;4941102;28;20081;-80
2023/08/17 12:40:42;;;;;;;3.88;3.47;;;19.90;99.90;;;;;;4941367;28;20101;-80
2023/08/17 12:43:08;;;;;;;5.57;3.80;;;19.90;99.90;;;;;;4941461;28;20089;-79
2023/08/17 12:45:34;;;;;;;6.70;4.40;;;19.80;99.90;;;;;;4956854;28;20090;-78
2023/08/17 12:48:00;;;;;;;4.55;3.55;;;19.90;99.90;;;;;;4941419;28;20050;-79
2023/08/17 12:50:28;;;;;;;6.03;4.00;;;19.90;99.90;;;;;;4956742;28;20039;-79
2023/08/17 12:52:54;;;;;;;8.20;4.30;;;20.00;99.90;;;;;;4957219;28;20386;-78
2023/08/17 12:55:22;;;;;;;4.85;4.20;;;19.90;99.90;;;;;;4941669;28;20489;-80